EBOS

Ostend-Bruges International Airport

Ostend, Belgium
TAF EBOS 221730Z 2218/2324 24005KT CAVOK TEMPO 2303/2306 3000 BR PROB30 TEMPO 2303/2305 0800 BCFG
Issued Valid From Valid To
Jul-22 @ 17:30 UTC
(3 hours ago)
Jul-22 @ 18:00 UTC
(2 hours ago)
Jul-24 @ 00:00 UTC
(-1 days ago)
Jul-22 @ 18:00 to Jul-24 @ 00:00
TAF EBOS 221730Z 2218/2324 24005KT CAVOK
Wind Visibility Clouds Conditions
240° at 5 knots 10,000+ meters
  • No significant clouds
Temporary  (Probability 30%) Jul-23 @ 03:00 to Jul-23 @ 05:00
PROB30 TEMPO 2303/2305 0800 BCFG
Visibility Conditions
805 meters
  • Patches of
  • Fog
Temporary Jul-23 @ 03:00 to Jul-23 @ 06:00
TEMPO 2303/2306 3000 BR
Visibility Conditions
2,993 meters
  • Mist
TAF EBOS 221730Z 2218/2324 24005KT CAVOK TEMPO 2303/2306 3000 BR PROB30 TEMPO 2303/2305 0800 BCFG
Issued Jul-22 @ 17:30 UTC
(3 hours ago)
Valid From Jul-22 @ 18:00 UTC
(2 hours ago)
Valid To Jul-24 @ 00:00 UTC
(-1 days ago)
Jul-22 @ 18:00 - Jul-24 @ 00:00
Wind Visibility
240° at 5 knots 10,000+ meters
Clouds
  • No significant clouds
Conditions
Probability 30% Temporary Jul-23 @ 03:00 - Jul-23 @ 05:00
Conditions
  • Patches of
  • Fog
Temporary Jul-23 @ 03:00 - Jul-23 @ 06:00
Conditions
  • Mist